sensor_id;sensor_type;location;lat;lon;timestamp;pressure;altitude;pressure_sealevel;temperature;humidity
54600;BME280;40500;51.084;16.958;2023-02-04T00:01:06;99769.12;;;3.26;100.00
54600;BME280;40500;51.084;16.958;2023-02-04T00:03:37;99773.95;;;3.22;100.00
54600;BME280;40500;51.084;16.958;2023-02-04T00:06:07;99787.09;;;3.19;100.00
54600;BME280;40500;51.084;16.958;2023-02-04T00:08:38;99767.86;;;3.15;100.00
54600;BME280;40500;51.084;16.958;2023-02-04T00:11:09;99770.45;;;3.11;100.00
54600;BME280;40500;51.084;16.958;2023-02-04T00:13:39;99777.16;;;3.04;100.00
54600;BME280;40500;51.084;16.958;2023-02-04T00:16:09;99790.63;;;2.97;100.00
54600;BME280;40500;51.084;16.958;2023-02-04T00:18:40;99786.27;;;2.92;100.00
54600;BME280;40500;51.084;16.958;2023-02-04T00:21:11;99797.48;;;2.88;100.00
54600;BME280;40500;51.084;16.958;2023-02-04T00:23:41;99788.82;;;2.84;100.00
54600;BME280;40500;51.084;16.958;2023-02-04T00:26:12;99793.28;;;2.79;100.00
54600;BME280;40500;51.084;16.958;2023-02-04T00:28:42;99800.86;;;2.73;100.00
54600;BME280;40500;51.084;16.958;2023-02-04T00:31:15;99809.50;;;2.73;100.00
54600;BME280;40500;51.084;16.958;2023-02-04T00:33:45;99814.33;;;2.71;100.00
54600;BME280;40500;51.084;16.958;2023-02-04T00:36:17;99828.83;;;2.68;100.00
54600;BME280;40500;51.084;16.958;2023-02-04T00:38:47;99829.17;;;2.68;100.00
54600;BME280;40500;51.084;16.958;2023-02-04T00:41:17;99846.62;;;2.66;100.00
54600;BME280;40500;51.084;16.958;2023-02-04T00:43:48;99853.15;;;2.60;100.00
54600;BME280;40500;51.084;16.958;2023-02-04T00:46:18;99852.08;;;2.56;100.00
54600;BME280;40500;51.084;16.958;2023-02-04T00:48:49;99853.29;;;2.53;100.00
54600;BME280;40500;51.084;16.958;2023-02-04T00:51:19;99847.55;;;2.50;100.00
54600;BME280;40500;51.084;16.958;2023-02-04T00:53:50;99856.66;;;2.46;100.00
54600;BME280;40500;51.084;16.958;2023-02-04T00:56:21;99866.17;;;2.46;100.00
54600;BME280;40500;51.084;16.958;2023-02-04T00:58:51;99872.02;;;2.41;100.00
54600;BME280;40500;51.084;16.958;2023-02-04T01:01:21;99881.46;;;2.36;100.00
54600;BME280;40500;51.084;16.958;2023-02-04T01:03:52;99887.46;;;2.31;100.00
54600;BME280;40500;51.084;16.958;2023-02-04T01:06:22;99893.48;;;2.27;100.00
54600;BME280;40500;51.084;16.958;2023-02-04T01:08:52;99902.77;;;2.24;100.00
54600;BME280;40500;51.084;16.958;2023-02-04T01:11:24;99914.31;;;2.19;100.00
54600;BME280;40500;51.084;16.958;2023-02-04T01:13:55;99913.23;;;2.14;100.00
54600;BME280;40500;51.084;16.958;2023-02-04T01:16:25;99930.77;;;2.09;100.00
54600;BME280;40500;51.084;16.958;2023-02-04T01:18:56;99937.45;;;2.02;100.00
54600;BME280;40500;51.084;16.958;2023-02-04T01:21:26;99934.98;;;1.98;100.00
54600;BME280;40500;51.084;16.958;2023-02-04T01:23:58;99940.09;;;1.93;100.00
54600;BME280;40500;51.084;16.958;2023-02-04T01:26:28;99947.50;;;1.90;100.00
54600;BME280;40500;51.084;16.958;2023-02-04T01:28:59;99955.05;;;1.86;100.00
54600;BME280;40500;51.084;16.958;2023-02-04T01:31:29;99947.92;;;1.84;100.00
54600;BME280;40500;51.084;16.958;2023-02-04T01:34:03;99965.84;;;1.79;100.00
54600;BME280;40500;51.084;16.958;2023-02-04T01:36:35;99961.26;;;1.73;100.00
54600;BME280;40500;51.084;16.958;2023-02-04T01:39:05;99984.84;;;1.67;100.00
54600;BME280;40500;51.084;16.958;2023-02-04T01:41:36;100005.30;;;1.63;100.00
54600;BME280;40500;51.084;16.958;2023-02-04T01:44:07;100020.88;;;1.52;100.00
54600;BME280;40500;51.084;16.958;2023-02-04T01:46:37;100048.66;;;1.41;100.00
54600;BME280;40500;51.084;16.958;2023-02-04T01:49:07;100077.09;;;1.29;100.00
54600;BME280;40500;51.084;16.958;2023-02-04T01:51:39;100093.91;;;1.14;100.00
54600;BME280;40500;51.084;16.958;2023-02-04T01:54:12;100116.33;;;1.04;100.00
54600;BME280;40500;51.084;16.958;2023-02-04T01:56:45;100143.38;;;0.94;100.00
54600;BME280;40500;51.084;16.958;2023-02-04T01:59:17;100154.91;;;0.83;100.00
54600;BME280;40500;51.084;16.958;2023-02-04T02:01:49;100173.55;;;0.76;100.00
54600;BME280;40500;51.084;16.958;2023-02-04T02:04:23;100174.80;;;0.69;100.00
54600;BME280;40500;51.084;16.958;2023-02-04T02:07:04;100190.35;;;0.63;100.00
54600;BME280;40500;51.084;16.958;2023-02-04T02:09:35;100216.40;;;0.56;100.00
54600;BME280;40500;51.084;16.958;2023-02-04T02:12:07;100231.60;;;0.50;100.00
54600;BME280;40500;51.084;16.958;2023-02-04T02:14:37;100258.34;;;0.45;100.00
54600;BME280;40500;51.084;16.958;2023-02-04T02:17:08;100271.00;;;0.41;100.00
54600;BME280;40500;51.084;16.958;2023-02-04T02:19:38;100285.91;;;0.37;100.00
54600;BME280;40500;51.084;16.958;2023-02-04T02:22:15;100295.75;;;0.31;100.00
54600;BME280;40500;51.084;16.958;2023-02-04T02:24:48;100325.65;;;0.28;100.00
54600;BME280;40500;51.084;16.958;2023-02-04T02:27:20;100338.33;;;0.25;100.00
54600;BME280;40500;51.084;16.958;2023-02-04T02:29:51;100357.52;;;0.22;100.00
54600;BME280;40500;51.084;16.958;2023-02-04T02:32:21;100372.60;;;0.18;100.00
54600;BME280;40500;51.084;16.958;2023-02-04T02:34:54;100387.73;;;0.18;100.00
54600;BME280;40500;51.084;16.958;2023-02-04T02:37:24;100402.81;;;0.15;100.00
54600;BME280;40500;51.084;16.958;2023-02-04T02:39:55;100418.92;;;0.12;100.00
54600;BME280;40500;51.084;16.958;2023-02-04T02:42:26;100440.58;;;0.10;100.00
54600;BME280;40500;51.084;16.958;2023-02-04T02:44:57;100455.75;;;0.06;100.00
54600;BME280;40500;51.084;16.958;2023-02-04T02:47:28;100471.36;;;0.04;100.00
54600;BME280;40500;51.084;16.958;2023-02-04T02:50:00;100491.50;;;0.03;100.00
54600;BME280;40500;51.084;16.958;2023-02-04T02:52:30;100516.04;;;0.01;100.00
54600;BME280;40500;51.084;16.958;2023-02-04T02:55:01;100524.09;;;-0.02;100.00
54600;BME280;40500;51.084;16.958;2023-02-04T02:57:31;100534.75;;;-0.02;100.00
54600;BME280;40500;51.084;16.958;2023-02-04T03:00:05;100548.19;;;-0.02;100.00
54600;BME280;40500;51.084;16.958;2023-02-04T03:02:35;100555.81;;;0.01;100.00
54600;BME280;40500;51.084;16.958;2023-02-04T03:05:06;100572.48;;;-0.01;100.00
54600;BME280;40500;51.084;16.958;2023-02-04T03:07:37;100591.55;;;-0.03;100.00
54600;BME280;40500;51.084;16.958;2023-02-04T03:10:08;100594.96;;;-0.03;100.00
54600;BME280;40500;51.084;16.958;2023-02-04T03:12:39;100617.66;;;-0.04;100.00
54600;BME280;40500;51.084;16.958;2023-02-04T03:15:10;100624.15;;;-0.06;100.00
54600;BME280;40500;51.084;16.958;2023-02-04T03:17:41;100641.67;;;-0.07;100.00
54600;BME280;40500;51.084;16.958;2023-02-04T03:20:14;100653.80;;;-0.10;100.00
54600;BME280;40500;51.084;16.958;2023-02-04T03:22:45;100664.10;;;-0.11;100.00
54600;BME280;40500;51.084;16.958;2023-02-04T03:25:16;100681.19;;;-0.14;100.00
54600;BME280;40500;51.084;16.958;2023-02-04T03:27:52;100705.22;;;-0.17;100.00
54600;BME280;40500;51.084;16.958;2023-02-04T03:30:24;100708.44;;;-0.18;100.00
54600;BME280;40500;51.084;16.958;2023-02-04T03:32:57;100725.89;;;-0.22;100.00
54600;BME280;40500;51.084;16.958;2023-02-04T03:35:28;100749.36;;;-0.25;100.00
54600;BME280;40500;51.084;16.958;2023-02-04T03:37:58;100770.80;;;-0.27;100.00
54600;BME280;40500;51.084;16.958;2023-02-04T03:40:28;100776.06;;;-0.29;100.00
54600;BME280;40500;51.084;16.958;2023-02-04T03:42:59;100789.06;;;-0.31;100.00
54600;BME280;40500;51.084;16.958;2023-02-04T03:45:30;100800.29;;;-0.34;100.00
54600;BME280;40500;51.084;16.958;2023-02-04T03:48:12;100807.61;;;-0.37;100.00
54600;BME280;40500;51.084;16.958;2023-02-04T03:50:44;100815.39;;;-0.41;100.00
54600;BME280;40500;51.084;16.958;2023-02-04T03:53:14;100824.27;;;-0.43;100.00
54600;BME280;40500;51.084;16.958;2023-02-04T03:55:44;100837.94;;;-0.46;100.00
54600;BME280;40500;51.084;16.958;2023-02-04T03:58:15;100845.82;;;-0.47;100.00
54600;BME280;40500;51.084;16.958;2023-02-04T04:00:45;100858.49;;;-0.48;100.00
54600;BME280;40500;51.084;16.958;2023-02-04T04:03:15;100872.86;;;-0.51;100.00
54600;BME280;40500;51.084;16.958;2023-02-04T04:05:46;100891.08;;;-0.51;100.00
54600;BME280;40500;51.084;16.958;2023-02-04T04:08:17;100889.66;;;-0.52;100.00
54600;BME280;40500;51.084;16.958;2023-02-04T04:10:47;100910.84;;;-0.52;100.00
54600;BME280;40500;51.084;16.958;2023-02-04T04:13:18;100911.82;;;-0.53;100.00
54600;BME280;40500;51.084;16.958;2023-02-04T04:15:48;100921.23;;;-0.54;100.00
54600;BME280;40500;51.084;16.958;2023-02-04T04:18:18;100925.02;;;-0.54;100.00
54600;BME280;40500;51.084;16.958;2023-02-04T04:20:49;100938.20;;;-0.56;100.00
54600;BME280;40500;51.084;16.958;2023-02-04T04:23:19;100949.18;;;-0.56;100.00
54600;BME280;40500;51.084;16.958;2023-02-04T04:25:49;100956.01;;;-0.58;100.00
54600;BME280;40500;51.084;16.958;2023-02-04T04:28:20;100959.05;;;-0.59;100.00
54600;BME280;40500;51.084;16.958;2023-02-04T04:30:50;100972.48;;;-0.59;100.00
54600;BME280;40500;51.084;16.958;2023-02-04T04:33:21;100985.19;;;-0.60;100.00
54600;BME280;40500;51.084;16.958;2023-02-04T04:35:51;100986.02;;;-0.60;100.00
54600;BME280;40500;51.084;16.958;2023-02-04T04:38:23;100994.55;;;-0.62;100.00
54600;BME280;40500;51.084;16.958;2023-02-04T04:40:53;101002.80;;;-0.63;100.00
54600;BME280;40500;51.084;16.958;2023-02-04T04:43:24;101019.55;;;-0.65;100.00
54600;BME280;40500;51.084;16.958;2023-02-04T04:45:54;101034.09;;;-0.67;100.00
54600;BME280;40500;51.084;16.958;2023-02-04T04:48:24;101038.17;;;-0.68;100.00
54600;BME280;40500;51.084;16.958;2023-02-04T04:50:55;101050.42;;;-0.67;100.00
54600;BME280;40500;51.084;16.958;2023-02-04T04:53:26;101062.66;;;-0.66;100.00
54600;BME280;40500;51.084;16.958;2023-02-04T04:55:56;101070.83;;;-0.68;100.00
54600;BME280;40500;51.084;16.958;2023-02-04T04:58:27;101085.95;;;-0.69;100.00
54600;BME280;40500;51.084;16.958;2023-02-04T05:00:57;101091.75;;;-0.70;100.00
54600;BME280;40500;51.084;16.958;2023-02-04T05:03:29;101103.79;;;-0.70;100.00
54600;BME280;40500;51.084;16.958;2023-02-04T05:06:00;101108.41;;;-0.71;100.00
54600;BME280;40500;51.084;16.958;2023-02-04T05:08:30;101118.45;;;-0.69;100.00
54600;BME280;40500;51.084;16.958;2023-02-04T05:11:05;101134.08;;;-0.70;100.00
54600;BME280;40500;51.084;16.958;2023-02-04T05:13:35;101149.64;;;-0.72;100.00
54600;BME280;40500;51.084;16.958;2023-02-04T05:16:08;101158.20;;;-0.73;100.00
54600;BME280;40500;51.084;16.958;2023-02-04T05:18:42;101165.95;;;-0.72;100.00
54600;BME280;40500;51.084;16.958;2023-02-04T05:21:12;101181.60;;;-0.72;100.00
54600;BME280;40500;51.084;16.958;2023-02-04T05:23:43;101186.95;;;-0.72;100.00
54600;BME280;40500;51.084;16.958;2023-02-04T05:26:13;101199.60;;;-0.73;100.00
54600;BME280;40500;51.084;16.958;2023-02-04T05:28:58;101207.21;;;-0.72;100.00
54600;BME280;40500;51.084;16.958;2023-02-04T05:31:29;101216.10;;;-0.74;100.00
54600;BME280;40500;51.084;16.958;2023-02-04T05:33:59;101223.45;;;-0.75;100.00
54600;BME280;40500;51.084;16.958;2023-02-04T05:36:30;101230.34;;;-0.75;100.00
54600;BME280;40500;51.084;16.958;2023-02-04T05:39:00;101233.91;;;-0.76;100.00
54600;BME280;40500;51.084;16.958;2023-02-04T05:41:30;101238.69;;;-0.76;100.00
54600;BME280;40500;51.084;16.958;2023-02-04T05:44:01;101247.08;;;-0.77;100.00
54600;BME280;40500;51.084;16.958;2023-02-04T05:46:31;101252.11;;;-0.76;100.00
54600;BME280;40500;51.084;16.958;2023-02-04T05:49:02;101255.16;;;-0.77;100.00
54600;BME280;40500;51.084;16.958;2023-02-04T05:51:32;101266.46;;;-0.78;100.00
54600;BME280;40500;51.084;16.958;2023-02-04T05:54:02;101280.02;;;-0.80;100.00
54600;BME280;40500;51.084;16.958;2023-02-04T05:56:33;101288.81;;;-0.78;100.00
54600;BME280;40500;51.084;16.958;2023-02-04T05:59:04;101297.48;;;-0.77;100.00
54600;BME280;40500;51.084;16.958;2023-02-04T06:01:34;101306.82;;;-0.76;100.00
54600;BME280;40500;51.084;16.958;2023-02-04T06:04:04;101313.38;;;-0.75;100.00
54600;BME280;40500;51.084;16.958;2023-02-04T06:06:35;101323.73;;;-0.74;100.00
54600;BME280;40500;51.084;16.958;2023-02-04T06:09:05;101333.09;;;-0.73;100.00
54600;BME280;40500;51.084;16.958;2023-02-04T06:11:36;101342.30;;;-0.75;100.00
54600;BME280;40500;51.084;16.958;2023-02-04T06:14:06;101355.91;;;-0.78;100.00
54600;BME280;40500;51.084;16.958;2023-02-04T06:16:37;101360.10;;;-0.81;100.00
54600;BME280;40500;51.084;16.958;2023-02-04T06:19:08;101370.11;;;-0.83;100.00
54600;BME280;40500;51.084;16.958;2023-02-04T06:21:39;101388.19;;;-0.87;100.00
54600;BME280;40500;51.084;16.958;2023-02-04T06:24:09;101397.02;;;-0.92;100.00
54600;BME280;40500;51.084;16.958;2023-02-04T06:26:39;101406.80;;;-0.93;100.00
54600;BME280;40500;51.084;16.958;2023-02-04T06:29:10;101417.38;;;-0.91;100.00
54600;BME280;40500;51.084;16.958;2023-02-04T06:31:40;101433.14;;;-0.89;100.00
54600;BME280;40500;51.084;16.958;2023-02-04T06:34:11;101443.45;;;-0.89;100.00
54600;BME280;40500;51.084;16.958;2023-02-04T06:36:42;101450.91;;;-0.88;100.00
54600;BME280;40500;51.084;16.958;2023-02-04T06:39:12;101456.48;;;-0.86;100.00
54600;BME280;40500;51.084;16.958;2023-02-04T06:41:42;101459.25;;;-0.86;100.00
54600;BME280;40500;51.084;16.958;2023-02-04T06:44:13;101469.42;;;-0.85;100.00
54600;BME280;40500;51.084;16.958;2023-02-04T06:46:43;101479.67;;;-0.87;100.00
54600;BME280;40500;51.084;16.958;2023-02-04T06:49:13;101485.85;;;-0.87;100.00
54600;BME280;40500;51.084;16.958;2023-02-04T06:51:47;101495.23;;;-0.88;100.00
54600;BME280;40500;51.084;16.958;2023-02-04T06:54:18;101503.08;;;-0.90;100.00
54600;BME280;40500;51.084;16.958;2023-02-04T06:56:49;101515.08;;;-0.90;100.00
54600;BME280;40500;51.084;16.958;2023-02-04T06:59:20;101521.40;;;-0.91;100.00
54600;BME280;40500;51.084;16.958;2023-02-04T07:01:51;101524.77;;;-0.92;100.00
54600;BME280;40500;51.084;16.958;2023-02-04T07:04:22;101540.15;;;-0.95;100.00
54600;BME280;40500;51.084;16.958;2023-02-04T07:06:52;101548.07;;;-0.98;100.00
54600;BME280;40500;51.084;16.958;2023-02-04T07:09:23;101557.92;;;-1.00;100.00
54600;BME280;40500;51.084;16.958;2023-02-04T07:11:53;101558.45;;;-1.03;100.00
54600;BME280;40500;51.084;16.958;2023-02-04T07:14:24;101568.38;;;-1.08;100.00
54600;BME280;40500;51.084;16.958;2023-02-04T07:16:54;101576.68;;;-1.10;100.00
54600;BME280;40500;51.084;16.958;2023-02-04T07:19:26;101579.78;;;-1.13;100.00
54600;BME280;40500;51.084;16.958;2023-02-04T07:21:57;101592.06;;;-1.19;100.00
54600;BME280;40500;51.084;16.958;2023-02-04T07:24:27;101597.18;;;-1.23;100.00
54600;BME280;40500;51.084;16.958;2023-02-04T07:26:58;101600.52;;;-1.25;100.00
54600;BME280;40500;51.084;16.958;2023-02-04T07:29:30;101605.41;;;-1.27;100.00
54600;BME280;40500;51.084;16.958;2023-02-04T07:32:01;101617.00;;;-1.28;100.00
54600;BME280;40500;51.084;16.958;2023-02-04T07:34:31;101621.16;;;-1.31;100.00
54600;BME280;40500;51.084;16.958;2023-02-04T07:37:02;101631.95;;;-1.32;100.00
54600;BME280;40500;51.084;16.958;2023-02-04T07:39:32;101631.80;;;-1.31;100.00
54600;BME280;40500;51.084;16.958;2023-02-04T07:42:03;101639.52;;;-1.28;100.00
54600;BME280;40500;51.084;16.958;2023-02-04T07:44:36;101640.58;;;-1.25;100.00
54600;BME280;40500;51.084;16.958;2023-02-04T07:47:06;101642.37;;;-1.20;100.00
54600;BME280;40500;51.084;16.958;2023-02-04T07:49:37;101643.45;;;-1.15;100.00
54600;BME280;40500;51.084;16.958;2023-02-04T07:52:07;101645.27;;;-1.10;100.00
54600;BME280;40500;51.084;16.958;2023-02-04T07:54:38;101647.19;;;-1.06;100.00
54600;BME280;40500;51.084;16.958;2023-02-04T07:57:08;101654.70;;;-1.00;100.00
54600;BME280;40500;51.084;16.958;2023-02-04T07:59:39;101657.35;;;-0.96;100.00
54600;BME280;40500;51.084;16.958;2023-02-04T08:02:10;101658.45;;;-0.91;100.00
54600;BME280;40500;51.084;16.958;2023-02-04T08:04:40;101665.40;;;-0.86;100.00
54600;BME280;40500;51.084;16.958;2023-02-04T08:07:11;101663.14;;;-0.83;100.00
54600;BME280;40500;51.084;16.958;2023-02-04T08:09:41;101668.85;;;-0.75;100.00
54600;BME280;40500;51.084;16.958;2023-02-04T08:12:11;101669.84;;;-0.66;100.00
54600;BME280;40500;51.084;16.958;2023-02-04T08:14:42;101673.59;;;-0.60;100.00
54600;BME280;40500;51.084;16.958;2023-02-04T08:17:12;101675.98;;;-0.53;100.00
54600;BME280;40500;51.084;16.958;2023-02-04T08:19:42;101683.92;;;-0.46;100.00
54600;BME280;40500;51.084;16.958;2023-02-04T08:22:13;101686.22;;;-0.37;100.00
54600;BME280;40500;51.084;16.958;2023-02-04T08:24:43;101694.16;;;-0.30;100.00
54600;BME280;40500;51.084;16.958;2023-02-04T08:27:15;101690.52;;;-0.27;100.00
54600;BME280;40500;51.084;16.958;2023-02-04T08:29:47;101686.61;;;-0.23;100.00
54600;BME280;40500;51.084;16.958;2023-02-04T08:32:18;101691.95;;;-0.23;100.00
54600;BME280;40500;51.084;16.958;2023-02-04T08:34:48;101699.54;;;-0.19;100.00
54600;BME280;40500;51.084;16.958;2023-02-04T08:37:18;101701.71;;;-0.13;100.00
54600;BME280;40500;51.084;16.958;2023-02-04T08:39:49;101700.71;;;-0.05;100.00
54600;BME280;40500;51.084;16.958;2023-02-04T08:42:19;101697.64;;;-0.01;100.00
54600;BME280;40500;51.084;16.958;2023-02-04T08:44:50;101702.31;;;0.04;100.00
54600;BME280;40500;51.084;16.958;2023-02-04T08:47:20;101711.23;;;0.10;100.00
54600;BME280;40500;51.084;16.958;2023-02-04T08:49:50;101707.88;;;0.15;100.00
54600;BME280;40500;51.084;16.958;2023-02-04T08:52:21;101714.51;;;0.24;100.00
54600;BME280;40500;51.084;16.958;2023-02-04T08:54:51;101708.25;;;0.34;100.00
54600;BME280;40500;51.084;16.958;2023-02-04T08:57:22;101711.63;;;0.52;100.00
54600;BME280;40500;51.084;16.958;2023-02-04T08:59:52;101714.41;;;0.63;100.00
54600;BME280;40500;51.084;16.958;2023-02-04T09:02:22;101707.04;;;0.72;100.00
54600;BME280;40500;51.084;16.958;2023-02-04T09:04:53;101710.13;;;0.87;100.00
54600;BME280;40500;51.084;16.958;2023-02-04T09:07:23;101714.34;;;0.96;100.00
54600;BME280;40500;51.084;16.958;2023-02-04T09:09:53;101717.27;;;0.93;100.00
54600;BME280;40500;51.084;16.958;2023-02-04T09:12:24;101721.88;;;0.88;100.00
54600;BME280;40500;51.084;16.958;2023-02-04T09:14:54;101726.71;;;0.84;100.00
54600;BME280;40500;51.084;16.958;2023-02-04T09:17:25;101735.80;;;0.83;100.00
54600;BME280;40500;51.084;16.958;2023-02-04T09:19:57;101740.96;;;0.83;100.00
54600;BME280;40500;51.084;16.958;2023-02-04T09:22:27;101738.71;;;0.83;100.00
54600;BME280;40500;51.084;16.958;2023-02-04T09:24:58;101737.48;;;0.82;100.00
54600;BME280;40500;51.084;16.958;2023-02-04T09:27:28;101746.23;;;0.81;100.00
54600;BME280;40500;51.084;16.958;2023-02-04T09:30:01;101747.78;;;0.77;100.00
54600;BME280;40500;51.084;16.958;2023-02-04T09:32:31;101747.38;;;0.76;100.00
54600;BME280;40500;51.084;16.958;2023-02-04T09:35:02;101759.33;;;0.73;100.00
54600;BME280;40500;51.084;16.958;2023-02-04T09:37:34;101759.63;;;0.72;100.00
54600;BME280;40500;51.084;16.958;2023-02-04T09:40:06;101762.61;;;0.69;100.00
54600;BME280;40500;51.084;16.958;2023-02-04T09:42:37;101766.48;;;0.67;100.00
54600;BME280;40500;51.084;16.958;2023-02-04T09:45:12;101768.84;;;0.66;100.00
54600;BME280;40500;51.084;16.958;2023-02-04T09:47:47;101770.92;;;0.67;100.00
54600;BME280;40500;51.084;16.958;2023-02-04T09:50:20;101766.40;;;0.66;100.00
54600;BME280;40500;51.084;16.958;2023-02-04T09:52:55;101767.27;;;0.66;100.00
54600;BME280;40500;51.084;16.958;2023-02-04T09:55:31;101768.52;;;0.67;100.00
54600;BME280;40500;51.084;16.958;2023-02-04T09:58:04;101763.23;;;0.72;100.00
54600;BME280;40500;51.084;16.958;2023-02-04T10:00:35;101762.73;;;0.76;100.00
54600;BME280;40500;51.084;16.958;2023-02-04T10:03:13;101763.73;;;0.75;100.00
54600;BME280;40500;51.084;16.958;2023-02-04T10:05:45;101774.64;;;0.72;100.00
54600;BME280;40500;51.084;16.958;2023-02-04T10:08:17;101784.39;;;0.82;100.00
54600;BME280;40500;51.084;16.958;2023-02-04T10:10:49;101788.68;;;0.89;100.00
54600;BME280;40500;51.084;16.958;2023-02-04T10:13:22;101792.74;;;0.88;100.00
54600;BME280;40500;51.084;16.958;2023-02-04T10:15:54;101788.05;;;0.87;100.00
54600;BME280;40500;51.084;16.958;2023-02-04T10:18:27;101795.73;;;0.85;100.00
54600;BME280;40500;51.084;16.958;2023-02-04T10:21:07;101789.82;;;0.84;100.00
54600;BME280;40500;51.084;16.958;2023-02-04T10:23:38;101804.21;;;0.86;100.00
54600;BME280;40500;51.084;16.958;2023-02-04T10:26:11;101808.27;;;1.03;100.00
54600;BME280;40500;51.084;16.958;2023-02-04T10:28:42;101811.00;;;1.13;100.00
54600;BME280;40500;51.084;16.958;2023-02-04T10:31:32;101813.40;;;1.09;100.00
54600;BME280;40500;51.084;16.958;2023-02-04T10:34:11;101814.29;;;1.02;100.00
54600;BME280;40500;51.084;16.958;2023-02-04T10:36:44;101819.71;;;0.93;100.00
54600;BME280;40500;51.084;16.958;2023-02-04T10:39:17;101817.81;;;0.85;100.00
54600;BME280;40500;51.084;16.958;2023-02-04T10:41:49;101827.50;;;0.78;100.00
54600;BME280;40500;51.084;16.958;2023-02-04T10:44:26;101828.50;;;0.74;100.00
54600;BME280;40500;51.084;16.958;2023-02-04T10:47:01;101831.17;;;0.75;100.00
54600;BME280;40500;51.084;16.958;2023-02-04T10:49:32;101829.54;;;0.85;100.00
54600;BME280;40500;51.084;16.958;2023-02-04T10:52:12;101831.27;;;0.96;100.00
54600;BME280;40500;51.084;16.958;2023-02-04T10:54:45;101832.84;;;1.08;100.00
54600;BME280;40500;51.084;16.958;2023-02-04T10:57:20;101835.83;;;1.13;100.00
54600;BME280;40500;51.084;16.958;2023-02-04T10:59:52;101841.87;;;1.21;100.00
54600;BME280;40500;51.084;16.958;2023-02-04T11:02:33;101840.69;;;1.29;100.00
54600;BME280;40500;51.084;16.958;2023-02-04T11:05:10;101846.14;;;1.35;100.00
54600;BME280;40500;51.084;16.958;2023-02-04T11:07:41;101851.11;;;1.42;100.00
54600;BME280;40500;51.084;16.958;2023-02-04T11:10:15;101854.48;;;1.41;100.00
54600;BME280;40500;51.084;16.958;2023-02-04T11:12:58;101858.36;;;1.42;100.00
54600;BME280;40500;51.084;16.958;2023-02-04T11:15:48;101864.56;;;1.46;100.00
54600;BME280;40500;51.084;16.958;2023-02-04T11:18:30;101864.27;;;1.47;100.00
54600;BME280;40500;51.084;16.958;2023-02-04T11:21:00;101865.28;;;1.50;100.00
54600;BME280;40500;51.084;16.958;2023-02-04T11:23:33;101870.71;;;1.56;100.00
54600;BME280;40500;51.084;16.958;2023-02-04T11:26:07;101875.58;;;1.61;100.00
54600;BME280;40500;51.084;16.958;2023-02-04T11:28:55;101873.52;;;1.69;100.00
54600;BME280;40500;51.084;16.958;2023-02-04T11:31:55;101873.90;;;1.66;100.00
54600;BME280;40500;51.084;16.958;2023-02-04T11:34:29;101879.63;;;1.55;100.00
54600;BME280;40500;51.084;16.958;2023-02-04T11:37:13;101874.88;;;1.41;100.00
54600;BME280;40500;51.084;16.958;2023-02-04T11:39:45;101870.67;;;1.28;100.00
54600;BME280;40500;51.084;16.958;2023-02-04T11:42:21;101884.70;;;1.18;100.00
54600;BME280;40500;51.084;16.958;2023-02-04T11:44:54;101885.88;;;1.10;100.00
54600;BME280;40500;51.084;16.958;2023-02-04T11:47:34;101887.53;;;1.01;100.00
54600;BME280;40500;51.084;16.958;2023-02-04T11:50:14;101884.82;;;0.95;100.00
54600;BME280;40500;51.084;16.958;2023-02-04T11:52:45;101889.02;;;0.92;100.00
54600;BME280;40500;51.084;16.958;2023-02-04T11:55:16;101890.15;;;0.91;100.00
54600;BME280;40500;51.084;16.958;2023-02-04T11:57:51;101895.40;;;0.89;100.00
54600;BME280;40500;51.084;16.958;2023-02-04T12:00:23;101897.36;;;0.86;100.00
54600;BME280;40500;51.084;16.958;2023-02-04T12:02:58;101896.23;;;0.81;100.00
54600;BME280;40500;51.084;16.958;2023-02-04T12:05:39;101902.73;;;0.76;100.00
54600;BME280;40500;51.084;16.958;2023-02-04T12:08:22;101903.64;;;0.84;100.00
54600;BME280;40500;51.084;16.958;2023-02-04T12:11:02;101899.23;;;1.11;100.00
54600;BME280;40500;51.084;16.958;2023-02-04T12:13:33;101894.23;;;1.41;100.00
54600;BME280;40500;51.084;16.958;2023-02-04T12:16:14;101894.59;;;1.57;100.00
54600;BME280;40500;51.084;16.958;2023-02-04T12:18:45;101896.88;;;1.58;100.00
54600;BME280;40500;51.084;16.958;2023-02-04T12:21:16;101901.98;;;1.56;100.00
54600;BME280;40500;51.084;16.958;2023-02-04T12:23:47;101906.55;;;1.47;100.00
54600;BME280;40500;51.084;16.958;2023-02-04T12:26:17;101915.15;;;1.31;100.00
54600;BME280;40500;51.084;16.958;2023-02-04T12:28:47;101920.58;;;1.18;100.00
54600;BME280;40500;51.084;16.958;2023-02-04T12:31:18;101916.89;;;1.09;100.00
54600;BME280;40500;51.084;16.958;2023-02-04T12:33:48;101919.79;;;1.01;100.00
54600;BME280;40500;51.084;16.958;2023-02-04T12:36:19;101924.89;;;0.96;100.00
54600;BME280;40500;51.084;16.958;2023-02-04T12:38:49;101922.96;;;0.95;100.00
54600;BME280;40500;51.084;16.958;2023-02-04T12:41:20;101921.17;;;1.01;100.00
54600;BME280;40500;51.084;16.958;2023-02-04T12:43:50;101923.92;;;1.08;100.00
54600;BME280;40500;51.084;16.958;2023-02-04T12:46:23;101921.43;;;1.17;100.00
54600;BME280;40500;51.084;16.958;2023-02-04T12:48:53;101918.41;;;1.23;100.00
54600;BME280;40500;51.084;16.958;2023-02-04T12:51:27;101929.20;;;1.33;100.00
54600;BME280;40500;51.084;16.958;2023-02-04T12:53:57;101923.16;;;1.47;100.00
54600;BME280;40500;51.084;16.958;2023-02-04T12:56:28;101921.45;;;1.55;100.00
54600;BME280;40500;51.084;16.958;2023-02-04T12:58:58;101921.81;;;1.56;100.00
54600;BME280;40500;51.084;16.958;2023-02-04T13:01:29;101926.73;;;1.58;100.00